createdAt,value
2019-04-07T00:02:13.092Z,99837.94
2019-04-07T00:04:43.047Z,99836.08
2019-04-07T00:07:14.706Z,99840.04
2019-04-07T00:09:44.777Z,99840.04
2019-04-07T00:12:14.667Z,99835.88
2019-04-07T00:14:44.840Z,99840.67
2019-04-07T00:17:15.127Z,99842.14
2019-04-07T00:19:46.030Z,99840.28
2019-04-07T00:22:15.969Z,99840.91
2019-04-07T00:24:46.747Z,99837.72
2019-04-07T00:27:16.797Z,99837.51
2019-04-07T00:29:46.988Z,99838.48
2019-04-07T00:32:20.011Z,99837.02
2019-04-07T00:34:49.976Z,99840.02
2019-04-07T00:37:19.847Z,99836.20
2019-04-07T00:39:50.047Z,99837.23
2019-04-07T00:42:20.080Z,99829.02
2019-04-07T00:44:50.027Z,99825.11
2019-04-07T00:47:20.733Z,99826.10
2019-04-07T00:49:51.234Z,99827.47
2019-04-07T00:52:22.828Z,99824.48
2019-04-07T00:54:53.450Z,99824.48
2019-04-07T00:57:23.612Z,99826.49
2019-04-07T00:59:54.042Z,99830.50
2019-04-07T01:02:24.465Z,99826.24
2019-04-07T01:04:55.049Z,99823.94
2019-04-07T01:07:25.591Z,99823.61
2019-04-07T01:09:55.778Z,99826.94
2019-04-07T01:12:25.848Z,99824.34
2019-04-07T01:14:56.560Z,99822.88
2019-04-07T01:17:27.119Z,99820.08
2019-04-07T01:19:57.074Z,99829.41
2019-04-07T01:22:27.200Z,99823.85
2019-04-07T01:24:57.566Z,99819.70
2019-04-07T01:27:27.856Z,99822.00
2019-04-07T01:29:58.625Z,99815.34
2019-04-07T01:32:29.106Z,99817.00
2019-04-07T01:34:59.997Z,99817.65
2019-04-07T01:37:30.568Z,99821.66
2019-04-07T01:40:01.447Z,99821.36
2019-04-07T01:42:59.810Z,99825.66
2019-04-07T01:45:49.141Z,99824.69
2019-04-07T01:48:37.099Z,99815.92
2019-04-07T01:51:29.980Z,99825.27
2019-04-07T01:54:19.646Z,99828.80
2019-04-07T01:57:03.191Z,99829.43
2019-04-07T01:59:57.484Z,99822.88
2019-04-07T02:02:44.514Z,99825.56
2019-04-07T02:05:32.320Z,99818.95
2019-04-07T02:08:31.018Z,99824.48
2019-04-07T02:11:32.508Z,99819.92
2019-04-07T02:14:15.918Z,99825.77
2019-04-07T02:17:04.313Z,99824.49
2019-04-07T02:19:53.389Z,99820.61
2019-04-07T02:22:57.564Z,99826.66
2019-04-07T02:25:49.225Z,99831.31
2019-04-07T02:28:37.197Z,99828.91
2019-04-07T02:31:26.194Z,99828.68
2019-04-07T02:34:07.950Z,99826.38
2019-04-07T02:37:03.246Z,99825.47
2019-04-07T02:39:48.848Z,99830.97
2019-04-07T02:42:30.438Z,99820.95
2019-04-07T02:45:24.816Z,99824.77
2019-04-07T02:48:16.794Z,99823.53
2019-04-07T02:51:07.751Z,99824.09
2019-04-07T02:54:09.331Z,99819.81
2019-04-07T02:56:47.328Z,99819.98
2019-04-07T02:59:35.426Z,99836.68
2019-04-07T03:02:27.401Z,99837.28
2019-04-07T03:05:08.077Z,99847.09
2019-04-07T03:07:57.131Z,99848.61
2019-04-07T03:10:37.068Z,99843.61
2019-04-07T03:13:16.866Z,99845.77
2019-04-07T03:16:09.449Z,99845.42
2019-04-07T03:18:53.023Z,99846.11
2019-04-07T03:21:58.374Z,99853.05
2019-04-07T03:24:57.001Z,99854.03
2019-04-07T03:27:51.390Z,99857.44
2019-04-07T03:30:51.923Z,99853.66
2019-04-07T03:33:49.673Z,99856.81
2019-04-07T03:37:02.956Z,99862.00
2019-04-07T03:39:26.558Z,99861.23
2019-04-07T03:42:15.709Z,99869.66
2019-04-07T03:44:51.371Z,99867.36
2019-04-07T03:47:26.154Z,99865.21
2019-04-07T03:50:04.946Z,99866.05
2019-04-07T03:52:52.491Z,99869.52
2019-04-07T03:55:57.802Z,99872.96
2019-04-07T03:59:05.567Z,99870.35
2019-04-07T04:02:04.640Z,99871.13
2019-04-07T04:05:05.568Z,99874.08
2019-04-07T04:07:52.928Z,99878.61
2019-04-07T04:10:27.124Z,99881.16
2019-04-07T04:13:07.691Z,99876.03
2019-04-07T04:15:51.586Z,99874.91
2019-04-07T04:18:22.497Z,99872.27
2019-04-07T04:20:52.826Z,99881.56
2019-04-07T04:23:23.153Z,99877.81
2019-04-07T04:25:53.727Z,99878.64
2019-04-07T04:28:24.962Z,99878.98
2019-04-07T04:30:56.542Z,99881.28
2019-04-07T04:33:27.276Z,99878.98
2019-04-07T04:35:59.084Z,99889.23
2019-04-07T04:38:29.944Z,99887.91
2019-04-07T04:41:00.148Z,99888.25
2019-04-07T04:43:30.105Z,99887.22
2019-04-07T04:46:00.039Z,99883.23
2019-04-07T04:48:30.051Z,99888.44
2019-04-07T04:51:00.011Z,99889.00
2019-04-07T04:53:30.844Z,99891.88
2019-04-07T04:56:01.466Z,99891.59
2019-04-07T04:58:32.211Z,99894.09
2019-04-07T05:01:03.083Z,99902.22
2019-04-07T05:03:33.849Z,99896.31
2019-04-07T05:06:03.968Z,99896.11
2019-04-07T05:08:34.067Z,99903.53
2019-04-07T05:11:05.510Z,99903.67
2019-04-07T05:13:35.844Z,99902.49
2019-04-07T05:16:05.724Z,99906.31
2019-04-07T05:18:35.993Z,99907.98
2019-04-07T05:21:06.919Z,99908.67
2019-04-07T05:23:36.702Z,99910.13
2019-04-07T05:26:07.024Z,99910.89
2019-04-07T05:28:37.907Z,99909.11
2019-04-07T05:31:08.835Z,99911.47
2019-04-07T05:33:41.313Z,99908.47
2019-04-07T05:36:12.234Z,99914.58
2019-04-07T05:38:42.240Z,99914.89
2019-04-07T05:41:12.105Z,99914.66
2019-04-07T05:43:41.892Z,99908.84
2019-04-07T05:46:12.671Z,99917.83
2019-04-07T05:48:43.581Z,99921.85
2019-04-07T05:51:13.457Z,99921.44
2019-04-07T05:53:46.462Z,99931.88
2019-04-07T05:56:14.878Z,99920.09
2019-04-07T05:58:44.703Z,99931.53
2019-04-07T06:01:19.013Z,99933.37
2019-04-07T06:03:46.745Z,99928.30
2019-04-07T06:06:19.103Z,99935.31
2019-04-07T06:08:49.528Z,99939.34
2019-04-07T06:11:19.519Z,99931.80
2019-04-07T06:13:50.384Z,99931.87
2019-04-07T06:16:22.343Z,99939.36
2019-04-07T06:18:52.338Z,99940.74
2019-04-07T06:21:23.419Z,99936.67
2019-04-07T06:23:58.359Z,99939.52
2019-04-07T06:26:25.529Z,99942.22
2019-04-07T06:28:58.455Z,99941.59
2019-04-07T06:31:29.023Z,99938.98
2019-04-07T06:33:58.942Z,99942.31
2019-04-07T06:36:28.829Z,99944.03
2019-04-07T06:38:59.342Z,99949.02
2019-04-07T06:41:31.258Z,99950.38
2019-04-07T06:44:10.075Z,99957.52
2019-04-07T06:47:03.445Z,99953.77
2019-04-07T06:49:49.852Z,99950.48
2019-04-07T06:52:28.625Z,99954.16
2019-04-07T06:55:32.722Z,99953.53
2019-04-07T06:58:24.273Z,99951.75
2019-04-07T07:01:18.998Z,99950.48
2019-04-07T07:04:10.856Z,99949.70
2019-04-07T07:06:48.405Z,99948.75
2019-04-07T07:09:33.965Z,99957.07
2019-04-07T07:12:38.401Z,99958.25
2019-04-07T07:15:12.825Z,99962.75
2019-04-07T07:18:19.949Z,99965.25
2019-04-07T07:21:08.605Z,99963.63
2019-04-07T07:23:44.842Z,99961.05
2019-04-07T07:26:12.400Z,99962.08
2019-04-07T07:28:43.869Z,99960.46
2019-04-07T07:31:14.326Z,99961.83
2019-04-07T07:33:44.773Z,99963.66
2019-04-07T07:36:17.297Z,99957.73
2019-04-07T07:38:56.331Z,99962.73
2019-04-07T07:41:20.632Z,99957.49
2019-04-07T07:43:49.951Z,99966.11
2019-04-07T07:46:21.842Z,99957.84
2019-04-07T07:48:52.185Z,99954.27
2019-04-07T07:51:23.638Z,99957.30
2019-04-07T07:53:56.601Z,99953.84
2019-04-07T07:56:26.673Z,99960.83
2019-04-07T07:58:59.846Z,99963.03
2019-04-07T08:01:28.273Z,99964.22
2019-04-07T08:03:58.628Z,99958.47
2019-04-07T08:06:29.435Z,99962.97
2019-04-07T08:09:09.943Z,99963.36
2019-04-07T08:11:33.831Z,99965.33
2019-04-07T08:14:04.310Z,99964.88
2019-04-07T08:16:34.690Z,99961.92
2019-04-07T08:19:08.405Z,99972.55
2019-04-07T08:21:36.919Z,99967.48
2019-04-07T08:24:08.110Z,99960.08
2019-04-07T08:26:38.252Z,99959.44
2019-04-07T08:29:08.841Z,99965.10
2019-04-07T08:31:39.899Z,99969.78
2019-04-07T08:34:10.141Z,99963.50
2019-04-07T08:36:41.944Z,99968.16
2019-04-07T08:39:21.475Z,99961.91
2019-04-07T08:41:43.833Z,99965.23
2019-04-07T08:44:13.730Z,99970.77
2019-04-07T08:46:44.439Z,99969.31
2019-04-07T08:49:15.004Z,99966.35
2019-04-07T08:51:44.940Z,99965.70
2019-04-07T08:54:18.278Z,99964.74
2019-04-07T08:56:47.943Z,99960.94
2019-04-07T08:59:19.712Z,99965.77
2019-04-07T09:01:51.651Z,99957.69
2019-04-07T09:04:21.351Z,99956.53
2019-04-07T09:06:51.217Z,99959.22
2019-04-07T09:09:34.126Z,99958.89
2019-04-07T09:11:59.328Z,99957.09
2019-04-07T09:14:29.537Z,99955.27
2019-04-07T09:17:29.452Z,99958.94
2019-04-07T09:20:09.595Z,99960.92
2019-04-07T09:22:54.733Z,99964.42
2019-04-07T09:25:41.085Z,99960.30
2019-04-07T09:28:30.009Z,99955.97
2019-04-07T09:31:15.430Z,99960.63
2019-04-07T09:34:11.546Z,99958.81
2019-04-07T09:36:55.663Z,99960.31
2019-04-07T09:39:56.296Z,99962.61
2019-04-07T09:42:25.876Z,99970.12
2019-04-07T09:45:08.990Z,99967.28
2019-04-07T09:47:51.194Z,99975.92
2019-04-07T09:50:47.066Z,99969.09
2019-04-07T09:53:30.504Z,99970.10
2019-04-07T09:56:20.518Z,99965.76
2019-04-07T09:59:24.864Z,99975.22
2019-04-07T10:02:14.555Z,99968.55
2019-04-07T10:05:13.702Z,99968.22
2019-04-07T10:08:03.201Z,99972.66
2019-04-07T10:10:51.087Z,99972.95
2019-04-07T10:13:36.138Z,99967.45
2019-04-07T10:16:21.092Z,99963.74
2019-04-07T10:19:07.627Z,99969.70
2019-04-07T10:21:56.331Z,99967.97
2019-04-07T10:24:43.557Z,99965.05
2019-04-07T10:27:31.624Z,99955.95
2019-04-07T10:30:20.003Z,99960.16
2019-04-07T10:33:00.392Z,99959.88
2019-04-07T10:35:38.444Z,99967.44
2019-04-07T10:38:22.918Z,99962.73
2019-04-07T10:41:01.042Z,99962.80
2019-04-07T10:43:52.871Z,99963.37
2019-04-07T10:46:42.788Z,99967.16
2019-04-07T10:49:22.748Z,99976.23
2019-04-07T10:52:07.705Z,99967.81
2019-04-07T10:55:05.693Z,99964.78
2019-04-07T10:57:51.625Z,99964.09
2019-04-07T11:00:53.873Z,99959.67
2019-04-07T11:03:37.105Z,99967.94
2019-04-07T11:06:28.407Z,99963.73
2019-04-07T11:09:11.208Z,99956.81
2019-04-07T11:11:49.176Z,99963.68
2019-04-07T11:14:44.488Z,99967.50
2019-04-07T11:17:30.322Z,99962.20
2019-04-07T11:20:28.426Z,99967.48
2019-04-07T11:23:07.351Z,99964.53
2019-04-07T11:25:47.978Z,99959.73
2019-04-07T11:28:37.985Z,99963.86
2019-04-07T11:31:14.549Z,99953.03
2019-04-07T11:34:01.692Z,99953.03
2019-04-07T11:36:43.154Z,99954.30
2019-04-07T11:39:43.563Z,99950.63
2019-04-07T11:42:39.372Z,99952.44
2019-04-07T11:45:27.641Z,99952.44
2019-04-07T11:48:05.570Z,99952.25
2019-04-07T11:50:54.218Z,99943.73
2019-04-07T11:53:53.719Z,99940.25
2019-04-07T11:56:41.903Z,99942.41
2019-04-07T11:59:23.930Z,99943.94
2019-04-07T12:02:18.570Z,99922.97
2019-04-07T12:05:05.507Z,99922.97
2019-04-07T12:08:09.491Z,99938.84
2019-04-07T12:11:02.756Z,99931.48
2019-04-07T12:13:56.946Z,99941.70
2019-04-07T12:16:47.158Z,99938.48
2019-04-07T12:19:36.996Z,99938.48
2019-04-07T12:22:22.770Z,99934.45
2019-04-07T12:25:07.797Z,99946.35
2019-04-07T12:27:55.909Z,99936.42
2019-04-07T12:30:44.339Z,99926.14
2019-04-07T12:33:46.391Z,99936.66
2019-04-07T12:36:31.107Z,99932.31
2019-04-07T12:39:19.060Z,99920.69
2019-04-07T12:42:14.636Z,99933.92
2019-04-07T12:45:03.969Z,99940.91
2019-04-07T12:47:44.205Z,99940.91
2019-04-07T12:50:37.061Z,99940.67
2019-04-07T12:53:26.368Z,99936.60
2019-04-07T12:56:06.959Z,99939.98
2019-04-07T12:58:50.587Z,99939.06
2019-04-07T13:01:29.637Z,99931.47
2019-04-07T13:04:09.905Z,99933.53
2019-04-07T13:07:05.363Z,99935.06
2019-04-07T13:09:46.130Z,99932.45
2019-04-07T13:12:46.637Z,99931.44
2019-04-07T13:15:45.568Z,99924.52
2019-04-07T13:18:43.724Z,99923.14
2019-04-07T13:21:45.572Z,99923.09
2019-04-07T13:24:31.209Z,99926.37
2019-04-07T13:27:23.776Z,99930.78
2019-04-07T13:30:03.973Z,99931.56
2019-04-07T13:33:11.395Z,99931.33
2019-04-07T13:35:55.070Z,99931.87
2019-04-07T13:38:35.250Z,99931.87
2019-04-07T13:41:24.222Z,99931.89
2019-04-07T13:44:07.131Z,99933.84
2019-04-07T13:46:54.368Z,99931.60
2019-04-07T13:50:00.931Z,99932.36
2019-04-07T13:52:59.157Z,99925.41
2019-04-07T13:55:45.137Z,99914.50
2019-04-07T13:58:35.698Z,99914.47
2019-04-07T14:01:11.505Z,99918.80
2019-04-07T14:03:57.078Z,99901.56
2019-04-07T14:06:39.276Z,99919.97
2019-04-07T14:09:18.131Z,99919.08
2019-04-07T14:12:10.191Z,99915.83
2019-04-07T14:14:55.979Z,99911.05
2019-04-07T14:17:51.738Z,99913.86
2019-04-07T14:20:36.449Z,99915.52
2019-04-07T14:23:27.589Z,99917.48
2019-04-07T14:26:19.023Z,99917.48
2019-04-07T14:29:10.765Z,99916.61
2019-04-07T14:32:06.704Z,99912.20
2019-04-07T14:34:54.286Z,99918.81
2019-04-07T14:37:35.957Z,99916.31
2019-04-07T14:40:17.370Z,99913.84
2019-04-07T14:43:13.655Z,99919.62
2019-04-07T14:46:06.333Z,99914.48
2019-04-07T14:48:55.351Z,99909.14
2019-04-07T14:51:50.281Z,99911.76
2019-04-07T14:54:48.556Z,99913.09
2019-04-07T14:57:48.055Z,99901.49
2019-04-07T15:00:36.375Z,99909.73
2019-04-07T15:03:07.329Z,99913.22
2019-04-07T15:05:41.831Z,99906.02
2019-04-07T15:08:18.259Z,99911.52
2019-04-07T15:10:51.644Z,99908.22
2019-04-07T15:13:25.792Z,99912.33
2019-04-07T15:15:56.020Z,99918.41
2019-04-07T15:18:26.114Z,99917.57
2019-04-07T15:20:56.169Z,99917.57
2019-04-07T15:23:29.452Z,99913.55
2019-04-07T15:25:59.023Z,99914.97
2019-04-07T15:28:31.401Z,99914.97
2019-04-07T15:31:00.975Z,99909.20
2019-04-07T15:33:33.627Z,99918.38
2019-04-07T15:36:02.391Z,99921.52
2019-04-07T15:38:32.269Z,99921.89
2019-04-07T15:41:04.520Z,99918.09
2019-04-07T15:43:35.079Z,99920.32
2019-04-07T15:46:05.546Z,99916.42
2019-04-07T15:48:35.350Z,99921.50
2019-04-07T15:51:05.613Z,99918.08
2019-04-07T15:53:36.884Z,99921.50
2019-04-07T15:56:08.230Z,99924.57
2019-04-07T15:58:38.308Z,99886.97
2019-04-07T16:01:09.413Z,99928.17
2019-04-07T16:03:39.854Z,99935.97
2019-04-07T16:06:13.688Z,99932.67
2019-04-07T16:08:41.662Z,99938.81
2019-04-07T16:11:11.583Z,99939.37
2019-04-07T16:13:42.216Z,99948.78
2019-04-07T16:16:12.253Z,99942.09
2019-04-07T16:18:43.464Z,99939.52
2019-04-07T16:21:14.288Z,99945.98
2019-04-07T16:23:47.929Z,99945.95
2019-04-07T16:26:16.278Z,99949.23
2019-04-07T16:28:46.595Z,99954.95
2019-04-07T16:31:16.796Z,99954.95
2019-04-07T16:33:46.792Z,99950.52
2019-04-07T16:36:17.304Z,99952.91
2019-04-07T16:38:47.613Z,99952.80
2019-04-07T16:41:17.844Z,99949.69
2019-04-07T16:43:47.681Z,99955.47
2019-04-07T16:46:22.483Z,99959.14
2019-04-07T16:48:51.214Z,99962.20
2019-04-07T16:51:21.649Z,99962.59
2019-04-07T16:53:52.092Z,99958.91
2019-04-07T16:56:22.336Z,99961.16
2019-04-07T16:58:53.464Z,99973.61
2019-04-07T17:01:25.800Z,99976.91
2019-04-07T17:03:59.286Z,99976.61
2019-04-07T17:06:33.475Z,99976.61
2019-04-07T17:09:02.441Z,99980.22
2019-04-07T17:11:36.961Z,99979.16
2019-04-07T17:14:05.656Z,99978.56
2019-04-07T17:16:36.635Z,99972.80
2019-04-07T17:19:07.601Z,99987.88
2019-04-07T17:21:40.025Z,99992.61
2019-04-07T17:24:09.142Z,99994.97
2019-04-07T17:26:39.346Z,99997.29
2019-04-07T17:29:09.663Z,99998.61
2019-04-07T17:31:40.050Z,99997.00
2019-04-07T17:34:12.768Z,99991.21
2019-04-07T17:36:41.616Z,100004.36
2019-04-07T17:39:39.163Z,100011.13
2019-04-07T17:42:12.542Z,100011.66
2019-04-07T17:45:08.092Z,100013.42
2019-04-07T17:47:52.064Z,100012.95
2019-04-07T17:50:37.509Z,100015.55
2019-04-07T17:53:38.098Z,100012.67
2019-04-07T17:56:29.687Z,100013.09
2019-04-07T17:59:04.434Z,100023.13
2019-04-07T18:01:41.170Z,100023.86
2019-04-07T18:04:28.173Z,100026.05
2019-04-07T18:07:16.379Z,100030.27
2019-04-07T18:10:08.916Z,100031.46
2019-04-07T18:13:15.707Z,100039.66
2019-04-07T18:15:58.043Z,100036.84
2019-04-07T18:18:45.748Z,100040.33
2019-04-07T18:21:27.326Z,100044.50
2019-04-07T18:24:15.044Z,100044.97
2019-04-07T18:27:12.573Z,100054.42
2019-04-07T18:30:06.592Z,100055.39
2019-04-07T18:32:53.545Z,100062.31
2019-04-07T18:35:46.932Z,100064.42
2019-04-07T18:38:28.634Z,100067.47
2019-04-07T18:41:18.562Z,100070.58
2019-04-07T18:44:08.617Z,100073.18
2019-04-07T18:47:06.839Z,100078.73
2019-04-07T18:49:50.193Z,100089.14
2019-04-07T18:52:45.693Z,100091.72
2019-04-07T18:55:37.165Z,100096.40
2019-04-07T18:58:36.723Z,100100.63
2019-04-07T19:01:18.201Z,100105.69
2019-04-07T19:04:07.529Z,100107.38
2019-04-07T19:06:56.454Z,100111.87
2019-04-07T19:09:36.298Z,100116.41
2019-04-07T19:12:19.254Z,100115.09
2019-04-07T19:15:03.774Z,100118.92
2019-04-07T19:17:50.313Z,100119.60
2019-04-07T19:20:51.690Z,100121.47
2019-04-07T19:23:40.998Z,100121.16
2019-04-07T19:26:27.853Z,100130.50
2019-04-07T19:29:31.791Z,100132.84
2019-04-07T19:32:21.040Z,100130.05
2019-04-07T19:35:20.580Z,100132.88
2019-04-07T19:38:09.498Z,100128.92
2019-04-07T19:40:51.366Z,100139.69
2019-04-07T19:43:44.454Z,100135.89
2019-04-07T19:46:32.935Z,100133.89
2019-04-07T19:49:24.051Z,100137.57
2019-04-07T19:52:12.702Z,100140.88
2019-04-07T19:55:05.846Z,100139.05
2019-04-07T19:57:54.801Z,100140.87
2019-04-07T20:00:37.895Z,100140.89
2019-04-07T20:03:26.313Z,100137.22
2019-04-07T20:06:25.171Z,100143.85
2019-04-07T20:09:10.774Z,100145.86
2019-04-07T20:11:48.127Z,100146.52
2019-04-07T20:14:52.697Z,100145.84
2019-04-07T20:17:35.737Z,100146.84
2019-04-07T20:20:15.398Z,100149.49
2019-04-07T20:23:02.199Z,100153.49
2019-04-07T20:25:48.331Z,100149.84
2019-04-07T20:28:32.499Z,100152.50
2019-04-07T20:31:30.807Z,100155.81
2019-04-07T20:34:13.986Z,100152.48
2019-04-07T20:36:54.681Z,100156.45
2019-04-07T20:39:43.457Z,100161.43
2019-04-07T20:42:38.780Z,100163.73
2019-04-07T20:45:32.638Z,100163.73
2019-04-07T20:48:20.167Z,100162.07
2019-04-07T20:51:22.146Z,100157.11
2019-04-07T20:54:17.510Z,100166.41
2019-04-07T20:57:07.228Z,100161.09
2019-04-07T20:59:54.136Z,100158.09
2019-04-07T21:02:33.737Z,100159.57
2019-04-07T21:05:44.379Z,100165.71
2019-04-07T21:08:36.347Z,100163.04
2019-04-07T21:11:13.149Z,100163.05
2019-04-07T21:14:03.041Z,100159.05
2019-04-07T21:17:01.584Z,100164.67
2019-04-07T21:19:47.610Z,100168.27
2019-04-07T21:22:37.246Z,100162.63
2019-04-07T21:25:32.124Z,100167.89
2019-04-07T21:28:20.333Z,100166.52
2019-04-07T21:31:13.303Z,100170.13
2019-04-07T21:34:03.277Z,100166.09
2019-04-07T21:36:53.739Z,100168.91
2019-04-07T21:39:49.037Z,100168.41
2019-04-07T21:42:53.083Z,100174.52
2019-04-07T21:45:45.839Z,100174.86
2019-04-07T21:48:30.640Z,100176.30
2019-04-07T21:51:15.372Z,100173.81
2019-04-07T21:53:59.990Z,100179.27
2019-04-07T21:56:48.309Z,100173.77
2019-04-07T21:59:52.414Z,100179.41
2019-04-07T22:02:30.001Z,100175.59
2019-04-07T22:05:13.510Z,100179.41
2019-04-07T22:07:55.685Z,100179.27
2019-04-07T22:10:25.690Z,100188.23
2019-04-07T22:13:15.401Z,100185.25
2019-04-07T22:15:49.624Z,100191.69
2019-04-07T22:18:17.459Z,100183.05
2019-04-07T22:20:51.140Z,100190.44
2019-04-07T22:23:19.318Z,100196.34
2019-04-07T22:25:54.055Z,100190.66
2019-04-07T22:28:27.834Z,100190.47
2019-04-07T22:30:57.266Z,100193.27
2019-04-07T22:33:31.049Z,100188.23
2019-04-07T22:36:00.055Z,100200.16
2019-04-07T22:38:31.589Z,100191.52
2019-04-07T22:41:01.452Z,100190.69
2019-04-07T22:43:34.930Z,100201.72
2019-04-07T22:46:12.834Z,100196.53
2019-04-07T22:48:36.713Z,100197.66
2019-04-07T22:51:12.097Z,100202.23
2019-04-07T22:53:41.291Z,100196.20
2019-04-07T22:56:13.929Z,100201.73
2019-04-07T22:58:44.465Z,100205.02
2019-04-07T23:01:14.611Z,100199.23
2019-04-07T23:03:45.476Z,100200.89
2019-04-07T23:06:16.802Z,100198.46
2019-04-07T23:08:47.230Z,100202.48
2019-04-07T23:11:17.366Z,100197.67
2019-04-07T23:13:47.410Z,100200.41
2019-04-07T23:16:18.015Z,100199.80
2019-04-07T23:18:49.950Z,100200.53
2019-04-07T23:21:21.509Z,100201.86
2019-04-07T23:23:51.783Z,100201.16
2019-04-07T23:26:22.262Z,100201.63
2019-04-07T23:28:52.434Z,100199.48
2019-04-07T23:31:23.621Z,100199.08
2019-04-07T23:33:56.539Z,100197.36
2019-04-07T23:36:26.812Z,100206.48
2019-04-07T23:38:56.769Z,100209.32
2019-04-07T23:41:28.254Z,100201.47
2019-04-07T23:43:58.891Z,100205.56
2019-04-07T23:46:29.702Z,100207.92
2019-04-07T23:48:59.636Z,100202.42
2019-04-07T23:51:29.709Z,100208.84
2019-04-07T23:54:14.274Z,100208.58
2019-04-07T23:56:45.033Z,100214.56
2019-04-07T23:59:16.793Z,100212.86
